Time;durP1;ratioP1;P1;durP2;ratioP2;P2;SDS_P1;SDS_P2;PMS_P1;PMS_P2;Temp;Humidity;BMP_temperature;BMP_pressure;BME280_temperature;BME280_humidity;BME280_pressure;Samples;Min_cycle;Max_cycle;Signal;HPM_P1;HPM_P2
2024/01/13 00:00:57;;;;;;;13.88;8.27;;;2.90;99.90;;;;;;5093346;28;20063;-73
2024/01/13 00:03:23;;;;;;;13.40;8.20;;;2.90;99.90;;;;;;5081050;28;20101;-72
2024/01/13 00:05:49;;;;;;;12.55;7.53;;;2.90;99.90;;;;;;5084872;28;20044;-75
2024/01/13 00:08:15;;;;;;;12.30;8.13;;;2.90;99.90;;;;;;5079071;28;20054;-73
2024/01/13 00:10:41;;;;;;;13.98;8.63;;;2.90;99.90;;;;;;5078054;28;20032;-75
2024/01/13 00:13:08;;;;;;;14.38;8.40;;;2.90;99.90;;;;;;5062096;28;20085;-75
2024/01/13 00:15:35;;;;;;;14.35;8.75;;;2.90;99.90;;;;;;5058362;28;20084;-77
2024/01/13 00:18:01;;;;;;;15.05;8.80;;;2.90;99.90;;;;;;5058353;28;20036;-75
2024/01/13 00:20:27;;;;;;;12.82;8.27;;;2.80;99.90;;;;;;5057988;28;20044;-76
2024/01/13 00:22:52;;;;;;;13.65;8.18;;;2.90;99.90;;;;;;5056982;28;20115;-75
2024/01/13 00:25:18;;;;;;;14.10;8.43;;;2.80;99.90;;;;;;5023559;28;20127;-76
2024/01/13 00:27:44;;;;;;;16.05;8.60;;;2.80;99.90;;;;;;5056477;28;20037;-76
2024/01/13 00:30:10;;;;;;;12.60;8.23;;;2.80;99.90;;;;;;5055953;28;20131;-74
2024/01/13 00:32:36;;;;;;;12.68;7.95;;;2.90;99.90;;;;;;5056149;28;20036;-74
2024/01/13 00:35:02;;;;;;;14.73;8.95;;;2.80;99.90;;;;;;5039375;28;20036;-74
2024/01/13 00:37:28;;;;;;;14.15;8.25;;;2.80;99.90;;;;;;5039710;28;20047;-74
2024/01/13 00:39:54;;;;;;;12.50;7.53;;;2.80;99.90;;;;;;5022621;28;20045;-74
2024/01/13 00:42:19;;;;;;;14.02;8.13;;;2.90;99.90;;;;;;5055691;28;20123;-74
2024/01/13 00:44:45;;;;;;;14.30;7.95;;;2.80;99.90;;;;;;5055548;28;20401;-74
2024/01/13 00:47:11;;;;;;;15.02;8.15;;;2.90;99.90;;;;;;5038635;28;20048;-76
2024/01/13 00:49:37;;;;;;;13.10;7.93;;;2.80;99.90;;;;;;5055345;28;20068;-76
2024/01/13 00:52:03;;;;;;;12.75;7.88;;;2.90;99.90;;;;;;5038806;28;20032;-74
2024/01/13 00:54:29;;;;;;;12.00;7.15;;;2.90;99.90;;;;;;5055227;28;20076;-74
2024/01/13 00:56:55;;;;;;;13.23;7.95;;;2.90;99.90;;;;;;5038780;28;20098;-74
2024/01/13 00:59:20;;;;;;;17.15;8.55;;;2.80;99.90;;;;;;5055345;28;20049;-76
2024/01/13 01:01:46;;;;;;;13.20;7.22;;;2.80;99.90;;;;;;5038325;28;20044;-74
2024/01/13 01:04:12;;;;;;;11.93;7.03;;;2.80;99.90;;;;;;5055348;28;20055;-74
2024/01/13 01:06:38;;;;;;;13.60;7.40;;;2.90;99.90;;;;;;5038395;28;20127;-74
2024/01/13 01:09:06;;;;;;;14.73;7.93;;;2.90;99.90;;;;;;5054742;28;20156;-67
2024/01/13 01:11:31;;;;;;;13.38;7.00;;;2.80;99.90;;;;;;5038628;28;20045;-66
2024/01/13 01:13:57;;;;;;;15.38;8.23;;;2.80;99.90;;;;;;5042874;28;20143;-67
2024/01/13 01:16:23;;;;;;;13.88;7.63;;;2.80;99.90;;;;;;5074631;28;20060;-67
2024/01/13 01:18:49;;;;;;;13.43;7.85;;;2.80;99.90;;;;;;5042001;28;20050;-67
2024/01/13 01:21:16;;;;;;;15.38;7.78;;;2.80;99.90;;;;;;5058069;28;20036;-66
2024/01/13 01:23:41;;;;;;;15.27;8.07;;;2.80;99.90;;;;;;5075015;28;20032;-66
2024/01/13 01:26:07;;;;;;;12.70;7.65;;;2.80;99.90;;;;;;5074906;28;20109;-67
2024/01/13 01:28:33;;;;;;;12.13;6.85;;;2.80;99.90;;;;;;5074787;28;20039;-67
2024/01/13 01:30:59;;;;;;;13.13;6.70;;;2.80;99.90;;;;;;5074709;28;20047;-66
2024/01/13 01:33:24;;;;;;;12.38;6.50;;;2.90;99.90;;;;;;5074490;28;20040;-67
2024/01/13 01:35:50;;;;;;;15.02;7.22;;;2.80;99.90;;;;;;5074566;28;20055;-67
2024/01/13 01:38:16;;;;;;;13.63;6.85;;;2.80;99.90;;;;;;5074400;28;20512;-69
2024/01/13 01:40:43;;;;;;;13.75;6.90;;;2.80;99.90;;;;;;5058087;28;20062;-68
2024/01/13 01:43:08;;;;;;;13.90;7.07;;;2.90;99.90;;;;;;5074709;28;20046;-68
2024/01/13 01:45:34;;;;;;;12.50;6.82;;;2.80;99.90;;;;;;5057583;28;20504;-68
2024/01/13 01:48:04;;;;;;;14.55;7.22;;;2.80;99.90;;;;;;5057845;28;20040;-68
2024/01/13 01:50:30;;;;;;;13.75;6.20;;;2.80;99.90;;;;;;5074588;28;20150;-68
2024/01/13 01:52:56;;;;;;;13.63;6.25;;;2.80;99.90;;;;;;5074541;28;20082;-68
2024/01/13 01:55:23;;;;;;;13.98;6.40;;;2.80;99.90;;;;;;5057836;28;20547;-68
2024/01/13 01:57:50;;;;;;;11.98;6.38;;;2.80;99.90;;;;;;5058224;28;20408;-68
2024/01/13 02:00:18;;;;;;;11.23;5.43;;;2.80;99.90;;;;;;5074376;28;20047;-68
2024/01/13 02:02:44;;;;;;;11.85;6.10;;;2.80;99.90;;;;;;5058262;28;20040;-68
2024/01/13 02:05:10;;;;;;;11.98;6.30;;;2.80;99.90;;;;;;5074301;28;20040;-68
2024/01/13 02:07:36;;;;;;;12.32;6.40;;;2.80;99.90;;;;;;5074403;28;20123;-68
2024/01/13 02:10:03;;;;;;;12.93;6.38;;;2.80;99.90;;;;;;5074627;28;20033;-68
2024/01/13 02:12:28;;;;;;;13.32;6.78;;;2.80;99.90;;;;;;5074454;28;20044;-68
2024/01/13 02:14:54;;;;;;;11.25;6.32;;;2.80;99.90;;;;;;5057700;28;20055;-68
2024/01/13 02:17:22;;;;;;;12.02;6.55;;;2.90;99.90;;;;;;5057662;28;20054;-68
2024/01/13 02:19:48;;;;;;;11.85;6.32;;;2.80;99.90;;;;;;5074333;28;20152;-76
2024/01/13 02:22:14;;;;;;;15.13;6.80;;;2.80;99.90;;;;;;5060657;28;20071;-75
2024/01/13 02:24:39;;;;;;;11.88;6.28;;;2.80;99.90;;;;;;5078240;28;20040;-76
2024/01/13 02:27:05;;;;;;;13.55;6.38;;;2.80;99.90;;;;;;5061445;28;20048;-75
2024/01/13 02:29:31;;;;;;;14.02;7.10;;;2.90;99.90;;;;;;5078020;28;20039;-75
2024/01/13 02:31:56;;;;;;;14.25;6.93;;;2.90;99.90;;;;;;5061217;28;20036;-76
2024/01/13 02:34:22;;;;;;;13.13;6.43;;;2.80;99.90;;;;;;5078166;28;20494;-76
2024/01/13 02:36:48;;;;;;;13.68;6.85;;;2.90;99.90;;;;;;5077949;28;20040;-75
2024/01/13 02:39:14;;;;;;;12.63;6.70;;;2.90;99.90;;;;;;5061163;28;20036;-76
2024/01/13 02:41:39;;;;;;;14.82;7.35;;;2.90;99.90;;;;;;5044579;28;20050;-75
2024/01/13 02:44:05;;;;;;;15.15;7.95;;;2.90;99.90;;;;;;5077963;28;20036;-76
2024/01/13 02:46:31;;;;;;;15.95;7.85;;;2.90;99.90;;;;;;5077584;28;20181;-76
2024/01/13 02:48:58;;;;;;;13.07;7.15;;;2.90;99.90;;;;;;5077633;28;20150;-75
2024/01/13 02:51:24;;;;;;;14.40;7.82;;;2.90;99.90;;;;;;5061060;28;20032;-76
2024/01/13 02:53:49;;;;;;;15.88;7.75;;;2.90;99.90;;;;;;5077763;28;20047;-75
2024/01/13 02:56:15;;;;;;;15.70;7.72;;;2.90;99.90;;;;;;5077627;28;20043;-76
2024/01/13 02:58:41;;;;;;;16.73;7.70;;;2.90;99.90;;;;;;5095628;28;20047;-76
2024/01/13 03:01:07;;;;;;;14.88;7.78;;;3.00;99.90;;;;;;5077186;28;20484;-75
2024/01/13 03:03:37;;;;;;;14.77;8.13;;;2.90;99.90;;;;;;5077351;28;20040;-76
2024/01/13 03:06:04;;;;;;;15.98;8.10;;;3.00;99.90;;;;;;5076727;28;20044;-76
2024/01/13 03:08:29;;;;;;;13.75;7.25;;;3.00;99.90;;;;;;5077560;28;20044;-76
2024/01/13 03:10:55;;;;;;;16.23;7.53;;;2.90;99.90;;;;;;5095234;28;20551;-76
2024/01/13 03:13:21;;;;;;;15.55;7.40;;;2.90;99.90;;;;;;5060593;28;20046;-74
2024/01/13 03:15:47;;;;;;;15.27;7.78;;;3.00;99.90;;;;;;5060454;28;20136;-75
2024/01/13 03:18:13;;;;;;;15.05;8.00;;;2.90;99.90;;;;;;5077309;28;20044;-76
2024/01/13 03:20:38;;;;;;;16.42;8.10;;;3.00;99.90;;;;;;5060333;28;20051;-75
2024/01/13 03:23:04;;;;;;;16.50;8.23;;;3.00;99.90;;;;;;5060408;28;20082;-76
2024/01/13 03:25:30;;;;;;;17.10;7.88;;;3.00;99.90;;;;;;5060482;28;20102;-76
2024/01/13 03:27:55;;;;;;;14.98;8.32;;;3.00;99.90;;;;;;5076843;28;20139;-76
2024/01/13 03:30:21;;;;;;;16.27;8.02;;;3.10;99.90;;;;;;5043576;28;20043;-68
2024/01/13 03:32:47;;;;;;;17.35;8.80;;;3.00;99.90;;;;;;5076626;28;20040;-68
2024/01/13 03:35:13;;;;;;;16.17;8.32;;;3.00;99.90;;;;;;5077142;28;20500;-68
2024/01/13 03:37:39;;;;;;;15.95;8.68;;;3.00;99.90;;;;;;5060385;28;20121;-68
2024/01/13 03:40:05;;;;;;;15.38;8.48;;;3.00;99.90;;;;;;5076604;28;20040;-69
2024/01/13 03:42:31;;;;;;;15.27;8.07;;;3.00;99.90;;;;;;5043711;28;20491;-69
2024/01/13 03:44:57;;;;;;;16.48;9.00;;;3.10;99.90;;;;;;5076722;28;20121;-69
2024/01/13 03:47:23;;;;;;;15.98;9.68;;;3.10;99.90;;;;;;5076413;28;20125;-68
2024/01/13 03:49:49;;;;;;;15.98;9.38;;;3.00;99.90;;;;;;5060074;28;20032;-68
2024/01/13 03:52:14;;;;;;;16.75;9.52;;;3.00;99.90;;;;;;5076459;28;20093;-68
2024/01/13 03:54:41;;;;;;;15.40;9.18;;;3.00;99.90;;;;;;5059695;28;20075;-69
2024/01/13 03:57:07;;;;;;;15.60;9.30;;;3.00;99.90;;;;;;5059621;28;20035;-68
2024/01/13 03:59:33;;;;;;;17.83;9.57;;;3.00;99.90;;;;;;5060346;28;20472;-68
2024/01/13 04:01:59;;;;;;;15.68;8.85;;;3.00;99.90;;;;;;5076079;28;20050;-68
2024/01/13 04:04:25;;;;;;;14.63;8.90;;;3.00;99.90;;;;;;5076441;28;20048;-68
2024/01/13 04:06:50;;;;;;;14.88;8.55;;;3.00;99.90;;;;;;5059429;28;20075;-68
2024/01/13 04:09:16;;;;;;;17.02;9.40;;;3.00;99.90;;;;;;5059318;28;20051;-68
2024/01/13 04:11:42;;;;;;;14.60;7.63;;;3.00;99.90;;;;;;5075994;28;20032;-68
2024/01/13 04:14:08;;;;;;;18.08;8.57;;;3.00;99.90;;;;;;5075849;28;20119;-68
2024/01/13 04:16:34;;;;;;;16.55;8.45;;;3.00;99.90;;;;;;5059284;28;20551;-68
2024/01/13 04:18:59;;;;;;;16.55;9.02;;;3.00;99.90;;;;;;5059287;28;20055;-69
2024/01/13 04:21:25;;;;;;;15.25;7.95;;;3.00;99.90;;;;;;5059542;28;20056;-69
2024/01/13 04:23:51;;;;;;;15.38;7.88;;;3.00;99.90;;;;;;5075825;28;20043;-68
2024/01/13 04:26:21;;;;;;;15.80;8.10;;;3.00;99.90;;;;;;5075639;28;20046;-68
2024/01/13 04:28:47;;;;;;;13.77;7.78;;;3.00;99.90;;;;;;5042969;28;20040;-68
2024/01/13 04:31:13;;;;;;;15.52;8.40;;;3.00;99.90;;;;;;5075560;28;20032;-68
2024/01/13 04:33:38;;;;;;;14.48;7.65;;;3.00;99.90;;;;;;5059100;28;20047;-68
2024/01/13 04:36:04;;;;;;;14.88;7.38;;;3.00;99.90;;;;;;5058838;28;20050;-69
2024/01/13 04:38:30;;;;;;;15.93;7.82;;;3.00;99.90;;;;;;5075601;28;20404;-69
2024/01/13 04:40:56;;;;;;;13.57;7.53;;;3.00;99.90;;;;;;5075600;28;20040;-69
2024/01/13 04:43:21;;;;;;;13.88;7.40;;;3.10;99.90;;;;;;5075428;28;20047;-68
2024/01/13 04:45:47;;;;;;;14.15;7.03;;;3.10;99.90;;;;;;5075227;28;20036;-68
2024/01/13 04:48:15;;;;;;;13.10;6.70;;;3.00;99.90;;;;;;5058715;28;20122;-68
2024/01/13 04:50:41;;;;;;;12.35;7.47;;;3.10;99.90;;;;;;5075548;28;20124;-68
2024/01/13 04:53:07;;;;;;;14.18;7.32;;;3.10;99.90;;;;;;5058654;28;20075;-69
2024/01/13 04:55:33;;;;;;;13.63;6.80;;;3.10;99.90;;;;;;5075179;28;20101;-69
2024/01/13 04:57:58;;;;;;;15.82;8.15;;;3.10;99.90;;;;;;5041792;28;20051;-68
2024/01/13 05:00:24;;;;;;;15.32;7.32;;;3.10;99.90;;;;;;5075090;28;20043;-69
2024/01/13 05:02:50;;;;;;;13.77;8.02;;;3.10;99.90;;;;;;5058494;28;20123;-69
2024/01/13 05:05:16;;;;;;;15.25;7.88;;;3.10;99.90;;;;;;5075338;28;20039;-68
2024/01/13 05:07:41;;;;;;;13.48;8.07;;;3.00;99.90;;;;;;5041933;28;20119;-68
2024/01/13 05:10:07;;;;;;;19.58;8.65;;;3.10;99.90;;;;;;5075051;28;20047;-69
2024/01/13 05:12:33;;;;;;;14.45;8.27;;;3.00;99.90;;;;;;5058392;28;20093;-69
2024/01/13 05:14:59;;;;;;;14.38;7.40;;;3.00;99.90;;;;;;5058320;28;20052;-68
2024/01/13 05:17:25;;;;;;;15.68;8.40;;;3.10;99.90;;;;;;5075071;28;20043;-69
2024/01/13 05:19:51;;;;;;;14.50;7.50;;;3.10;99.90;;;;;;5075170;28;20044;-68
2024/01/13 05:22:16;;;;;;;15.60;8.45;;;3.10;99.90;;;;;;5058113;28;20036;-68
2024/01/13 05:24:42;;;;;;;14.00;7.88;;;3.10;99.90;;;;;;5075078;28;20118;-68
2024/01/13 05:27:08;;;;;;;15.65;8.15;;;3.10;99.90;;;;;;5074760;28;20078;-68
2024/01/13 05:29:34;;;;;;;15.88;7.60;;;3.00;99.90;;;;;;5058377;28;20503;-68
2024/01/13 05:32:00;;;;;;;12.88;7.25;;;3.10;99.90;;;;;;5074926;28;20146;-68
2024/01/13 05:34:25;;;;;;;17.42;8.63;;;3.00;99.90;;;;;;5058254;28;20036;-68
2024/01/13 05:36:51;;;;;;;14.80;7.60;;;3.00;99.90;;;;;;5058346;28;20043;-68
2024/01/13 05:39:17;;;;;;;17.17;8.05;;;3.00;99.90;;;;;;5074953;28;20082;-68
2024/01/13 05:41:43;;;;;;;16.50;7.63;;;3.10;99.90;;;;;;5058022;28;20044;-68
2024/01/13 05:44:08;;;;;;;13.60;6.97;;;3.00;99.90;;;;;;5074551;28;20044;-69
2024/01/13 05:46:34;;;;;;;13.43;6.90;;;3.10;99.90;;;;;;5058005;28;20050;-68
2024/01/13 05:49:01;;;;;;;14.27;7.32;;;3.10;99.90;;;;;;5057884;28;20492;-68
2024/01/13 05:51:28;;;;;;;15.88;7.57;;;3.00;99.90;;;;;;5041389;28;20040;-68
2024/01/13 05:53:54;;;;;;;12.55;6.82;;;3.10;99.90;;;;;;5074637;28;20044;-69
2024/01/13 05:56:20;;;;;;;13.95;7.18;;;3.00;99.90;;;;;;5076265;28;20535;-68
2024/01/13 05:58:46;;;;;;;12.95;6.63;;;3.00;99.90;;;;;;5078633;28;20044;-69
2024/01/13 06:01:11;;;;;;;9.82;5.43;;;3.10;99.90;;;;;;5045260;28;20464;-69
2024/01/13 06:03:37;;;;;;;12.95;6.10;;;3.00;99.90;;;;;;5078475;28;20048;-69
2024/01/13 06:06:03;;;;;;;11.55;5.93;;;3.00;99.90;;;;;;5061712;28;20104;-69
2024/01/13 06:08:29;;;;;;;12.02;6.00;;;3.00;99.90;;;;;;5061653;28;20040;-67
2024/01/13 06:10:55;;;;;;;10.50;5.18;;;3.00;99.90;;;;;;5062062;28;20081;-67
2024/01/13 06:13:21;;;;;;;12.55;5.82;;;2.90;99.90;;;;;;5078497;28;20028;-67
2024/01/13 06:15:46;;;;;;;12.38;4.63;;;2.90;99.90;;;;;;5077940;28;20056;-67
2024/01/13 06:18:13;;;;;;;10.75;5.13;;;3.00;99.90;;;;;;5078348;28;20044;-68
2024/01/13 06:20:39;;;;;;;10.13;5.22;;;2.90;99.90;;;;;;5064378;28;20047;-73
2024/01/13 06:23:06;;;;;;;10.60;5.07;;;2.90;99.90;;;;;;5046468;28;20040;-74
2024/01/13 06:25:32;;;;;;;10.43;5.00;;;2.90;99.90;;;;;;5080126;28;20052;-73
2024/01/13 06:27:58;;;;;;;10.90;4.90;;;3.00;99.90;;;;;;5047593;28;20536;-74
2024/01/13 06:30:23;;;;;;;12.95;6.32;;;3.00;99.90;;;;;;5081431;28;20040;-73
2024/01/13 06:32:49;;;;;;;11.23;5.75;;;2.90;99.90;;;;;;5073899;28;20040;-75
2024/01/13 06:35:15;;;;;;;14.05;6.10;;;3.00;99.90;;;;;;5096342;28;20085;-75
2024/01/13 06:37:41;;;;;;;11.80;5.30;;;3.00;99.90;;;;;;5080859;28;20036;-74
2024/01/13 06:40:08;;;;;;;11.65;5.53;;;2.90;99.90;;;;;;5064057;28;20058;-73
2024/01/13 06:42:34;;;;;;;11.35;5.43;;;2.90;99.90;;;;;;5055866;28;20036;-73
2024/01/13 06:45:00;;;;;;;9.68;5.03;;;2.90;99.90;;;;;;5047341;28;20040;-74
2024/01/13 06:47:26;;;;;;;8.57;4.03;;;2.90;99.90;;;;;;5062573;28;20119;-75
2024/01/13 06:49:52;;;;;;;11.02;4.68;;;3.00;99.90;;;;;;5062558;28;20097;-75
2024/01/13 06:52:17;;;;;;;9.25;4.18;;;3.00;99.90;;;;;;5062438;28;20048;-74
2024/01/13 06:54:43;;;;;;;10.27;4.60;;;3.00;99.90;;;;;;5078941;28;20044;-76
2024/01/13 06:57:09;;;;;;;10.80;4.68;;;3.00;99.90;;;;;;5062110;28;20036;-74
2024/01/13 06:59:35;;;;;;;10.20;5.10;;;3.00;99.90;;;;;;5078059;28;20040;-77
2024/01/13 07:02:01;;;;;;;8.63;4.47;;;3.00;99.90;;;;;;5077968;28;20032;-75
2024/01/13 07:04:28;;;;;;;10.15;4.70;;;3.00;99.90;;;;;;5078032;28;20040;-74
2024/01/13 07:06:54;;;;;;;8.95;4.80;;;3.00;99.90;;;;;;5077035;28;20407;-76
2024/01/13 07:09:20;;;;;;;9.90;5.00;;;3.00;99.90;;;;;;5077405;28;20040;-75
2024/01/13 07:11:49;;;;;;;10.10;4.38;;;3.00;99.90;;;;;;5081150;28;20036;-77
2024/01/13 07:14:15;;;;;;;10.65;4.60;;;3.00;99.90;;;;;;5094633;28;20036;-76
2024/01/13 07:16:41;;;;;;;9.98;4.63;;;3.00;99.90;;;;;;5093670;28;20052;-74
2024/01/13 07:19:07;;;;;;;8.50;4.25;;;3.10;99.90;;;;;;5082671;28;20507;-75
2024/01/13 07:21:33;;;;;;;10.73;5.10;;;3.10;99.90;;;;;;5045776;28;20044;-75
2024/01/13 07:23:59;;;;;;;10.02;4.70;;;3.00;99.90;;;;;;5095333;28;20097;-74
2024/01/13 07:26:25;;;;;;;11.40;5.20;;;3.10;99.90;;;;;;5061977;28;20036;-75
2024/01/13 07:28:51;;;;;;;9.27;4.80;;;3.10;99.90;;;;;;5061177;28;20047;-75
2024/01/13 07:31:16;;;;;;;11.32;5.70;;;3.10;99.90;;;;;;5043789;28;20040;-75
2024/01/13 07:33:42;;;;;;;11.52;5.88;;;3.10;99.90;;;;;;5077158;28;20383;-75
2024/01/13 07:36:08;;;;;;;11.07;5.50;;;3.10;99.90;;;;;;5043564;28;20036;-75
2024/01/13 07:38:34;;;;;;;11.82;5.55;;;3.10;99.90;;;;;;5060316;28;20048;-75
2024/01/13 07:41:00;;;;;;;9.80;5.03;;;3.10;99.90;;;;;;5076723;28;20043;-74
2024/01/13 07:43:25;;;;;;;9.82;5.30;;;3.10;99.90;;;;;;5043459;28;20508;-74
2024/01/13 07:45:51;;;;;;;10.23;5.10;;;3.20;99.90;;;;;;5076482;28;20127;-74
2024/01/13 07:48:17;;;;;;;9.48;4.60;;;3.20;99.90;;;;;;5043684;28;20143;-74
2024/01/13 07:50:43;;;;;;;11.70;5.03;;;3.20;99.90;;;;;;5043233;28;20036;-75
2024/01/13 07:53:09;;;;;;;9.63;4.90;;;3.20;99.90;;;;;;5060057;28;20507;-74
2024/01/13 07:55:34;;;;;;;9.85;4.50;;;3.20;99.90;;;;;;5059837;28;20040;-75
2024/01/13 07:58:00;;;;;;;11.27;5.18;;;3.20;99.90;;;;;;5059713;28;20039;-74
2024/01/13 08:00:27;;;;;;;11.23;5.60;;;3.30;99.90;;;;;;5076368;28;20063;-75
2024/01/13 08:02:53;;;;;;;11.43;5.38;;;3.30;99.90;;;;;;5059901;28;20476;-75
2024/01/13 08:05:19;;;;;;;10.55;5.53;;;3.20;99.90;;;;;;5059523;28;20040;-74
2024/01/13 08:07:45;;;;;;;9.70;5.40;;;3.20;99.90;;;;;;5076109;28;20507;-74
2024/01/13 08:10:11;;;;;;;9.13;5.07;;;3.20;99.90;;;;;;5059455;28;20404;-74
2024/01/13 08:12:36;;;;;;;10.55;5.10;;;3.30;99.90;;;;;;5059375;28;20040;-75
2024/01/13 08:15:04;;;;;;;9.60;4.90;;;3.20;99.90;;;;;;5075764;28;20182;-75
2024/01/13 08:17:29;;;;;;;11.25;5.20;;;3.30;99.90;;;;;;5059438;28;20056;-75
2024/01/13 08:19:55;;;;;;;9.90;4.20;;;3.30;99.90;;;;;;5058457;28;20066;-75
2024/01/13 08:22:21;;;;;;;7.97;4.20;;;3.30;99.90;;;;;;5075976;28;20492;-75
2024/01/13 08:24:47;;;;;;;9.73;4.15;;;3.30;99.90;;;;;;5043002;28;20051;-75
2024/01/13 08:27:13;;;;;;;7.70;3.80;;;3.30;99.90;;;;;;5042675;28;20079;-75
2024/01/13 08:29:40;;;;;;;8.52;3.70;;;3.30;99.90;;;;;;5076066;28;20064;-75
2024/01/13 08:32:06;;;;;;;6.78;3.65;;;3.30;99.90;;;;;;5059228;28;20038;-75
2024/01/13 08:34:31;;;;;;;7.60;3.75;;;3.30;99.90;;;;;;5042520;28;20039;-76
2024/01/13 08:36:57;;;;;;;7.53;3.65;;;3.30;99.90;;;;;;5075912;28;20507;-74
2024/01/13 08:39:23;;;;;;;7.13;3.67;;;3.30;99.90;;;;;;5042975;28;20126;-68
2024/01/13 08:41:49;;;;;;;7.30;3.72;;;3.30;99.90;;;;;;5059146;28;20094;-68
2024/01/13 08:44:15;;;;;;;7.32;3.92;;;3.30;99.90;;;;;;5075476;28;20043;-68
2024/01/13 08:46:41;;;;;;;7.55;3.85;;;3.30;99.90;;;;;;5042621;28;20415;-68
2024/01/13 08:49:08;;;;;;;9.00;4.13;;;3.30;99.90;;;;;;5058892;28;20040;-69
2024/01/13 08:51:34;;;;;;;7.85;4.00;;;3.30;99.90;;;;;;5075684;28;20127;-68
2024/01/13 08:54:01;;;;;;;8.23;4.35;;;3.30;99.90;;;;;;5042069;28;20119;-68
2024/01/13 08:56:27;;;;;;;10.82;5.15;;;3.30;99.90;;;;;;5058568;28;20067;-68
2024/01/13 08:58:53;;;;;;;11.32;6.03;;;3.30;99.90;;;;;;5075459;28;20036;-68
2024/01/13 09:01:18;;;;;;;13.50;6.82;;;3.30;99.90;;;;;;5058517;28;20040;-68
2024/01/13 09:03:46;;;;;;;13.63;7.15;;;3.40;99.90;;;;;;5058511;28;20044;-68
2024/01/13 09:06:12;;;;;;;14.05;7.47;;;3.30;99.90;;;;;;5058786;28;20044;-68
2024/01/13 09:08:38;;;;;;;16.92;8.98;;;3.30;99.90;;;;;;5075205;28;20036;-68
2024/01/13 09:11:05;;;;;;;18.63;9.75;;;3.40;99.90;;;;;;5058796;28;20090;-68
2024/01/13 09:13:30;;;;;;;20.00;10.65;;;3.40;99.90;;;;;;5058584;28;20488;-68
2024/01/13 09:15:58;;;;;;;21.70;11.30;;;3.40;99.90;;;;;;5045262;28;20058;-68
2024/01/13 09:18:25;;;;;;;24.88;11.90;;;3.40;99.90;;;;;;5038342;28;20149;-68
2024/01/13 09:20:51;;;;;;;27.45;13.55;;;3.40;99.90;;;;;;5055127;28;20041;-68
2024/01/13 09:23:16;;;;;;;28.95;15.25;;;3.50;99.90;;;;;;5055097;28;20514;-68
2024/01/13 09:25:42;;;;;;;31.38;15.52;;;3.40;99.90;;;;;;5054963;28;20041;-68
2024/01/13 09:28:09;;;;;;;30.38;16.23;;;3.50;99.90;;;;;;5038351;28;20040;-68
2024/01/13 09:30:36;;;;;;;34.78;18.08;;;3.50;99.90;;;;;;5021793;28;20059;-69
2024/01/13 09:33:04;;;;;;;37.33;19.40;;;3.50;99.90;;;;;;5038581;28;20546;-68
2024/01/13 09:35:31;;;;;;;44.55;21.38;;;3.50;99.90;;;;;;5022081;28;20054;-68
2024/01/13 09:37:59;;;;;;;43.20;21.52;;;3.50;99.90;;;;;;5038022;28;20075;-68
2024/01/13 09:40:28;;;;;;;48.95;23.30;;;3.50;99.90;;;;;;5054790;28;20032;-68
2024/01/13 09:43:14;;;;;;;50.53;25.73;;;3.50;99.90;;;;;;5054810;28;20089;-68
2024/01/13 09:45:44;;;;;;;49.05;24.88;;;3.50;99.90;;;;;;5054485;28;20066;-69
2024/01/13 09:48:16;;;;;;;51.30;26.48;;;3.50;99.90;;;;;;5054657;28;20040;-68
2024/01/13 09:50:44;;;;;;;56.10;27.08;;;3.50;99.90;;;;;;5055143;28;20036;-75
2024/01/13 09:53:13;;;;;;;54.17;27.73;;;3.50;99.90;;;;;;5054788;28;20047;-75
2024/01/13 09:55:40;;;;;;;60.80;28.92;;;3.50;99.90;;;;;;5054909;28;20489;-75
2024/01/13 09:58:07;;;;;;;64.18;31.05;;;3.60;99.90;;;;;;5038321;28;20086;-75
2024/01/13 10:00:34;;;;;;;60.85;30.55;;;3.60;99.90;;;;;;5054554;28;20047;-75
2024/01/13 10:03:00;;;;;;;62.50;31.52;;;3.60;99.90;;;;;;5038219;28;20048;-75
2024/01/13 10:05:28;;;;;;;65.65;32.35;;;3.60;99.90;;;;;;5054634;28;20047;-75
2024/01/13 10:07:54;;;;;;;62.00;31.15;;;3.60;99.90;;;;;;5054381;28;20037;-75
2024/01/13 10:10:20;;;;;;;71.38;35.42;;;3.60;99.90;;;;;;5037902;28;20072;-75
2024/01/13 10:12:46;;;;;;;70.65;36.25;;;3.60;99.90;;;;;;5037919;28;20040;-75
2024/01/13 10:15:16;;;;;;;74.55;34.92;;;3.60;99.90;;;;;;5054281;28;20074;-73
2024/01/13 10:17:42;;;;;;;68.43;36.28;;;3.60;99.90;;;;;;5054394;28;20072;-75
2024/01/13 10:20:13;;;;;;;66.13;35.15;;;3.60;99.90;;;;;;5037953;28;20047;-75
2024/01/13 10:22:39;;;;;;;75.45;37.47;;;3.60;99.90;;;;;;5054236;28;20068;-75
2024/01/13 10:25:07;;;;;;;76.43;38.90;;;3.60;99.90;;;;;;5054524;28;20045;-75
2024/01/13 10:27:35;;;;;;;71.85;37.10;;;3.60;99.90;;;;;;5037700;28;20128;-75
2024/01/13 10:30:02;;;;;;;76.82;39.97;;;3.70;99.90;;;;;;5038211;28;20099;-75
2024/01/13 10:32:28;;;;;;;78.70;41.08;;;3.70;99.90;;;;;;5054449;28;20079;-75
2024/01/13 10:34:54;;;;;;;75.57;39.95;;;3.70;99.90;;;;;;5054318;28;20076;-75
2024/01/13 10:37:19;;;;;;;82.05;43.22;;;3.70;99.90;;;;;;5054451;28;20520;-75
2024/01/13 10:39:45;;;;;;;75.15;41.45;;;3.70;99.90;;;;;;5037752;28;20044;-75
2024/01/13 10:42:16;;;;;;;79.78;43.08;;;3.80;99.90;;;;;;5038947;28;20396;-75
2024/01/13 10:44:46;;;;;;;73.85;39.67;;;3.80;99.90;;;;;;5041126;28;20040;-75
2024/01/13 10:47:15;;;;;;;68.82;38.08;;;3.80;99.90;;;;;;5057772;28;20094;-74
2024/01/13 10:49:42;;;;;;;80.78;44.00;;;3.80;99.90;;;;;;5058051;28;20040;-75
2024/01/13 10:52:12;;;;;;;74.00;40.80;;;3.80;99.90;;;;;;5057669;28;20115;-75
2024/01/13 10:54:38;;;;;;;81.13;43.13;;;3.80;99.90;;;;;;5057588;28;20041;-75
2024/01/13 10:57:04;;;;;;;76.13;42.75;;;3.80;99.90;;;;;;5040799;28;20040;-76
2024/01/13 10:59:34;;;;;;;74.05;42.97;;;3.80;99.90;;;;;;5057625;28;20049;-75
2024/01/13 11:02:00;;;;;;;75.43;43.20;;;3.80;99.90;;;;;;5040948;28;20044;-76
2024/01/13 11:04:27;;;;;;;76.20;42.03;;;3.80;99.90;;;;;;5057462;28;20413;-75
2024/01/13 11:06:54;;;;;;;76.68;41.85;;;3.80;99.90;;;;;;5040586;28;20123;-75
2024/01/13 11:09:20;;;;;;;70.22;40.78;;;3.80;99.90;;;;;;5057389;28;20045;-75
2024/01/13 11:12:06;;;;;;;75.72;43.30;;;3.80;99.90;;;;;;5040572;28;20106;-75
2024/01/13 11:14:41;;;;;;;71.15;40.70;;;3.90;99.90;;;;;;5037075;28;20473;-75
2024/01/13 11:17:08;;;;;;;74.93;42.83;;;3.90;99.90;;;;;;5057364;28;20040;-75
2024/01/13 11:19:35;;;;;;;74.93;41.85;;;3.90;99.90;;;;;;5073708;28;20036;-75
2024/01/13 11:22:31;;;;;;;73.70;41.97;;;3.80;99.90;;;;;;5056988;28;20047;-75
2024/01/13 11:24:58;;;;;;;74.97;41.08;;;3.90;99.90;;;;;;5040573;28;20044;-75
2024/01/13 11:27:24;;;;;;;77.38;42.40;;;3.90;99.90;;;;;;5023690;28;20040;-75
2024/01/13 11:29:55;;;;;;;78.18;42.95;;;3.90;99.90;;;;;;5056944;28;20466;-75
2024/01/13 11:32:24;;;;;;;77.73;42.97;;;3.90;99.90;;;;;;5040439;28;20140;-75
2024/01/13 11:34:50;;;;;;;80.85;42.33;;;3.80;99.90;;;;;;5057103;28;20047;-74
2024/01/13 11:37:16;;;;;;;78.65;43.17;;;3.80;99.90;;;;;;5073800;28;20052;-75
2024/01/13 11:39:45;;;;;;;78.03;42.83;;;3.80;99.90;;;;;;5023660;28;20040;-75
2024/01/13 11:42:11;;;;;;;85.10;44.17;;;3.80;99.90;;;;;;5023824;28;20043;-75
2024/01/13 11:44:49;;;;;;;81.45;43.60;;;3.80;99.90;;;;;;5056485;28;20040;-74
2024/01/13 11:47:27;;;;;;;72.35;39.60;;;3.80;99.90;;;;;;5039805;28;20041;-75
2024/01/13 11:49:53;;;;;;;73.78;40.53;;;3.80;99.90;;;;;;5073455;28;20036;-75
2024/01/13 11:52:32;;;;;;;78.53;43.17;;;3.90;99.90;;;;;;5056453;28;20040;-75
2024/01/13 11:54:58;;;;;;;76.40;42.55;;;3.80;99.90;;;;;;5072262;28;20427;-75
2024/01/13 11:57:24;;;;;;;75.88;43.40;;;3.80;99.90;;;;;;5056253;28;20127;-75
2024/01/13 11:59:50;;;;;;;69.80;39.42;;;3.80;99.90;;;;;;5039763;28;20405;-75
2024/01/13 12:02:16;;;;;;;78.15;41.92;;;3.80;99.90;;;;;;5055966;28;20051;-74
2024/01/13 12:04:42;;;;;;;69.30;40.40;;;3.90;99.90;;;;;;5023492;28;20436;-74
2024/01/13 12:07:12;;;;;;;73.57;41.60;;;3.90;99.90;;;;;;5056155;28;20040;-75
2024/01/13 12:09:40;;;;;;;78.40;41.92;;;3.80;99.90;;;;;;5056315;28;20162;-68
2024/01/13 12:12:07;;;;;;;76.95;41.67;;;3.80;99.90;;;;;;5056253;28;20485;-68
2024/01/13 12:14:35;;;;;;;67.43;38.80;;;3.90;99.90;;;;;;5039535;28;20558;-68
2024/01/13 12:17:03;;;;;;;70.22;38.97;;;3.90;99.90;;;;;;5072622;28;20485;-68
2024/01/13 12:19:36;;;;;;;72.72;40.47;;;3.90;99.90;;;;;;5055814;28;20076;-68
2024/01/13 12:22:06;;;;;;;74.07;40.50;;;3.90;99.90;;;;;;5022734;28;20047;-68
2024/01/13 12:24:33;;;;;;;76.38;39.55;;;3.90;99.90;;;;;;5055983;28;20485;-68
2024/01/13 12:26:59;;;;;;;75.32;40.65;;;3.90;99.90;;;;;;5055628;28;20076;-68
2024/01/13 12:29:33;;;;;;;68.90;39.45;;;3.90;99.90;;;;;;5056352;28;20568;-68
2024/01/13 12:32:03;;;;;;;61.67;34.90;;;4.00;99.90;;;;;;5040207;28;20040;-68
2024/01/13 12:34:31;;;;;;;68.80;36.28;;;4.00;99.90;;;;;;5055714;28;20045;-68
2024/01/13 12:36:58;;;;;;;75.28;38.03;;;4.00;99.90;;;;;;5039231;28;20501;-68
2024/01/13 12:39:24;;;;;;;69.78;38.10;;;4.10;99.90;;;;;;5055879;28;20542;-69
2024/01/13 12:41:51;;;;;;;64.45;35.92;;;4.10;99.90;;;;;;5055911;28;20603;-69